Marietta, NY (13110)

4:16 PM EST on December 05, 2016 (GMT -0500)
Otisco Lake | | Change Station

Elev 1140 ft 42.87 °N, 76.27 °W | Updated 1 second ago

Overcast
Overcast
37.9 °F
Feels Like 38 °F
N
0.0
Wind Variable Wind from SSE
Gusts 4.0 mph

Today
High -- | Low -- °F
--% Chance of Precip.
Yesterday
High -- | Low -- °F
Precip. -- in
Pressure 29.98 in
Visibility 10.0 miles
Clouds Scattered Clouds 3800 ft
Overcast 4700 ft
Windchill 38 °F
Dew Point 32 °F
Humidity 78%
Rainfall in
Snow Depth Not available.
7:21 AM 4:30 PM
Waxing Crescent, 35% visible
METAR KSYR 052054Z 25010KT 10SM SCT038 OVC047 04/M01 A2998 RMK AO2 SLP152 T00441006 53022
Pressure 29.98 in
Visibility 10.0 miles
Clouds Scattered Clouds 3800 ft
Overcast 4700 ft
Windchill 38 °F
Dew Point 32 °F
Humidity 78%
Rainfall in
Snow Depth Not available.
7:21 AM 4:30 PM
Waxing Crescent, 35% visible
METAR KSYR 052054Z 25010KT 10SM SCT038 OVC047 04/M01 A2998 RMK AO2 SLP152 T00441006 53022

10-Day Weather Forecast

Almanac

Astronomy

Dec. 05, 2016 Rise Set
Actual Time
Civil Twilight
Nautical Twilight
Astronomical Twilight
Moon
Length of Visible Light
Length of Day
Tomorrow will be .
, % of the Moon is Illuminated

Today's Extremes

State Highs State Lows

Community

WunderPhotos

Upload Photos

1,955,863 photos uploaded!

WunderBlog® & News

Nearby

Air Quality

  Air Quality AQ Index Pollutant
Not available.

Snow Depth

Station Depth Elevation

Earthquake Activity

City Distance Mag. Time & Date
Minimum magnitude displayed is 2.5.

Coastal Water Temperatures

Place Temperature

Stations

Nearby Weather Stations

Station Location Temp. Windchill Dew Point Humidity Wind Precip. Elev Updated Type
                   

Watches & Warnings

There are currently no watches in effect.